sensor_id;sensor_type;location;lat;lon;timestamp;P1;durP1;ratioP1;P2;durP2;ratioP2
75634;SDS011;64227;48.724;9.104;2023-05-23T00:01:27;23.58;;;14.45;;
75634;SDS011;64227;48.724;9.104;2023-05-23T00:03:55;23.83;;;13.48;;
75634;SDS011;64227;48.724;9.104;2023-05-23T00:06:21;29.30;;;16.75;;
75634;SDS011;64227;48.724;9.104;2023-05-23T00:08:46;25.38;;;14.35;;
75634;SDS011;64227;48.724;9.104;2023-05-23T00:11:11;23.83;;;14.73;;
75634;SDS011;64227;48.724;9.104;2023-05-23T00:13:37;26.98;;;15.30;;
75634;SDS011;64227;48.724;9.104;2023-05-23T00:16:04;32.33;;;17.23;;
75634;SDS011;64227;48.724;9.104;2023-05-23T00:18:33;31.70;;;18.23;;
75634;SDS011;64227;48.724;9.104;2023-05-23T00:20:59;28.83;;;17.02;;
75634;SDS011;64227;48.724;9.104;2023-05-23T00:23:25;28.95;;;16.52;;
75634;SDS011;64227;48.724;9.104;2023-05-23T00:25:53;31.33;;;18.30;;
75634;SDS011;64227;48.724;9.104;2023-05-23T00:28:19;33.65;;;18.25;;
75634;SDS011;64227;48.724;9.104;2023-05-23T00:30:46;29.85;;;17.95;;
75634;SDS011;64227;48.724;9.104;2023-05-23T00:33:12;33.78;;;19.60;;
75634;SDS011;64227;48.724;9.104;2023-05-23T00:35:38;34.92;;;19.60;;
75634;SDS011;64227;48.724;9.104;2023-05-23T00:38:05;31.10;;;17.73;;
75634;SDS011;64227;48.724;9.104;2023-05-23T00:40:31;36.13;;;20.17;;
75634;SDS011;64227;48.724;9.104;2023-05-23T00:42:57;37.03;;;18.55;;
75634;SDS011;64227;48.724;9.104;2023-05-23T00:45:22;31.60;;;18.58;;
75634;SDS011;64227;48.724;9.104;2023-05-23T00:47:48;34.15;;;18.60;;
75634;SDS011;64227;48.724;9.104;2023-05-23T00:50:15;31.55;;;18.65;;
75634;SDS011;64227;48.724;9.104;2023-05-23T00:52:40;34.83;;;19.23;;
75634;SDS011;64227;48.724;9.104;2023-05-23T00:55:06;33.00;;;17.63;;
75634;SDS011;64227;48.724;9.104;2023-05-23T00:57:32;39.03;;;21.88;;
75634;SDS011;64227;48.724;9.104;2023-05-23T00:59:59;40.75;;;20.55;;
75634;SDS011;64227;48.724;9.104;2023-05-23T01:02:24;36.22;;;19.95;;
75634;SDS011;64227;48.724;9.104;2023-05-23T01:04:51;37.30;;;20.58;;
75634;SDS011;64227;48.724;9.104;2023-05-23T01:07:20;40.65;;;20.80;;
75634;SDS011;64227;48.724;9.104;2023-05-23T01:09:45;44.28;;;22.92;;
75634;SDS011;64227;48.724;9.104;2023-05-23T01:14:45;45.73;;;22.97;;
75634;SDS011;64227;48.724;9.104;2023-05-23T01:17:16;35.28;;;19.70;;
75634;SDS011;64227;48.724;9.104;2023-05-23T01:22:32;37.58;;;21.10;;
75634;SDS011;64227;48.724;9.104;2023-05-23T01:28:10;45.85;;;23.65;;
75634;SDS011;64227;48.724;9.104;2023-05-23T01:30:38;46.00;;;26.35;;
75634;SDS011;64227;48.724;9.104;2023-05-23T01:33:04;46.35;;;23.13;;
75634;SDS011;64227;48.724;9.104;2023-05-23T01:35:32;47.55;;;24.35;;
75634;SDS011;64227;48.724;9.104;2023-05-23T01:37:57;46.70;;;24.83;;
75634;SDS011;64227;48.724;9.104;2023-05-23T01:40:23;49.50;;;25.80;;
75634;SDS011;64227;48.724;9.104;2023-05-23T01:42:49;49.45;;;26.10;;
75634;SDS011;64227;48.724;9.104;2023-05-23T01:45:14;40.47;;;22.33;;
75634;SDS011;64227;48.724;9.104;2023-05-23T01:47:40;53.30;;;26.80;;
75634;SDS011;64227;48.724;9.104;2023-05-23T01:50:07;51.15;;;24.38;;
75634;SDS011;64227;48.724;9.104;2023-05-23T01:52:33;50.92;;;25.92;;
75634;SDS011;64227;48.724;9.104;2023-05-23T01:54:59;54.15;;;27.90;;
75634;SDS011;64227;48.724;9.104;2023-05-23T01:57:25;52.63;;;27.25;;
75634;SDS011;64227;48.724;9.104;2023-05-23T01:59:52;50.50;;;25.75;;
75634;SDS011;64227;48.724;9.104;2023-05-23T02:02:18;49.20;;;24.33;;
75634;SDS011;64227;48.724;9.104;2023-05-23T02:04:43;54.67;;;27.00;;
75634;SDS011;64227;48.724;9.104;2023-05-23T02:07:08;47.65;;;25.02;;
75634;SDS011;64227;48.724;9.104;2023-05-23T02:09:34;46.55;;;24.85;;
75634;SDS011;64227;48.724;9.104;2023-05-23T02:11:59;52.53;;;26.38;;
75634;SDS011;64227;48.724;9.104;2023-05-23T02:14:25;54.10;;;27.92;;
75634;SDS011;64227;48.724;9.104;2023-05-23T02:16:52;53.95;;;27.98;;
75634;SDS011;64227;48.724;9.104;2023-05-23T02:19:17;49.33;;;25.75;;
75634;SDS011;64227;48.724;9.104;2023-05-23T02:21:43;57.95;;;28.10;;
75634;SDS011;64227;48.724;9.104;2023-05-23T02:24:08;56.45;;;28.38;;
75634;SDS011;64227;48.724;9.104;2023-05-23T02:26:33;63.05;;;31.35;;
75634;SDS011;64227;48.724;9.104;2023-05-23T02:28:59;57.80;;;29.23;;
75634;SDS011;64227;48.724;9.104;2023-05-23T02:31:25;55.03;;;27.48;;
75634;SDS011;64227;48.724;9.104;2023-05-23T02:33:50;59.60;;;30.92;;
75634;SDS011;64227;48.724;9.104;2023-05-23T02:36:16;54.03;;;27.33;;
75634;SDS011;64227;48.724;9.104;2023-05-23T02:38:41;49.97;;;27.08;;
75634;SDS011;64227;48.724;9.104;2023-05-23T02:41:06;50.78;;;26.13;;
75634;SDS011;64227;48.724;9.104;2023-05-23T02:43:31;47.45;;;25.48;;
75634;SDS011;64227;48.724;9.104;2023-05-23T02:45:57;52.30;;;27.73;;
75634;SDS011;64227;48.724;9.104;2023-05-23T02:48:22;56.28;;;30.75;;
75634;SDS011;64227;48.724;9.104;2023-05-23T02:50:47;57.47;;;28.17;;
75634;SDS011;64227;48.724;9.104;2023-05-23T02:53:13;55.28;;;29.38;;
75634;SDS011;64227;48.724;9.104;2023-05-23T02:55:38;61.35;;;30.60;;
75634;SDS011;64227;48.724;9.104;2023-05-23T02:58:03;53.58;;;29.23;;
75634;SDS011;64227;48.724;9.104;2023-05-23T03:00:29;53.05;;;28.85;;
75634;SDS011;64227;48.724;9.104;2023-05-23T03:02:56;53.83;;;28.52;;
75634;SDS011;64227;48.724;9.104;2023-05-23T03:05:21;57.15;;;30.10;;
75634;SDS011;64227;48.724;9.104;2023-05-23T03:07:47;49.85;;;27.50;;
75634;SDS011;64227;48.724;9.104;2023-05-23T03:10:12;55.47;;;27.75;;
75634;SDS011;64227;48.724;9.104;2023-05-23T03:12:37;49.05;;;27.30;;
75634;SDS011;64227;48.724;9.104;2023-05-23T03:15:03;50.20;;;28.13;;
75634;SDS011;64227;48.724;9.104;2023-05-23T03:17:28;55.15;;;30.15;;
75634;SDS011;64227;48.724;9.104;2023-05-23T03:19:54;52.10;;;29.27;;
75634;SDS011;64227;48.724;9.104;2023-05-23T03:22:19;52.95;;;29.17;;
75634;SDS011;64227;48.724;9.104;2023-05-23T03:24:45;48.10;;;26.88;;
75634;SDS011;64227;48.724;9.104;2023-05-23T03:27:10;48.03;;;27.77;;
75634;SDS011;64227;48.724;9.104;2023-05-23T03:29:35;54.50;;;27.40;;
75634;SDS011;64227;48.724;9.104;2023-05-23T03:32:01;41.08;;;25.23;;
75634;SDS011;64227;48.724;9.104;2023-05-23T03:34:26;40.95;;;24.67;;
75634;SDS011;64227;48.724;9.104;2023-05-23T03:36:51;47.88;;;25.48;;
75634;SDS011;64227;48.724;9.104;2023-05-23T03:39:17;44.85;;;26.55;;
75634;SDS011;64227;48.724;9.104;2023-05-23T03:41:42;44.38;;;27.33;;
75634;SDS011;64227;48.724;9.104;2023-05-23T03:44:07;41.03;;;25.25;;
75634;SDS011;64227;48.724;9.104;2023-05-23T03:46:33;45.78;;;26.70;;
75634;SDS011;64227;48.724;9.104;2023-05-23T03:48:58;39.78;;;24.35;;
75634;SDS011;64227;48.724;9.104;2023-05-23T03:51:23;38.67;;;23.67;;
75634;SDS011;64227;48.724;9.104;2023-05-23T03:53:49;37.42;;;23.75;;
75634;SDS011;64227;48.724;9.104;2023-05-23T03:56:14;35.85;;;21.75;;
75634;SDS011;64227;48.724;9.104;2023-05-23T03:58:39;40.65;;;25.13;;
75634;SDS011;64227;48.724;9.104;2023-05-23T04:01:05;40.00;;;24.77;;
75634;SDS011;64227;48.724;9.104;2023-05-23T04:03:30;48.25;;;27.70;;
75634;SDS011;64227;48.724;9.104;2023-05-23T04:05:59;47.55;;;26.75;;
75634;SDS011;64227;48.724;9.104;2023-05-23T04:08:25;43.78;;;25.40;;
75634;SDS011;64227;48.724;9.104;2023-05-23T04:10:50;42.25;;;26.05;;
75634;SDS011;64227;48.724;9.104;2023-05-23T04:13:16;40.08;;;24.35;;
75634;SDS011;64227;48.724;9.104;2023-05-23T04:15:41;38.00;;;23.50;;
75634;SDS011;64227;48.724;9.104;2023-05-23T04:18:07;41.72;;;26.30;;
75634;SDS011;64227;48.724;9.104;2023-05-23T04:20:33;39.72;;;23.60;;
75634;SDS011;64227;48.724;9.104;2023-05-23T04:22:58;35.83;;;21.92;;
75634;SDS011;64227;48.724;9.104;2023-05-23T04:25:23;34.22;;;21.30;;
75634;SDS011;64227;48.724;9.104;2023-05-23T04:27:50;35.67;;;22.38;;
75634;SDS011;64227;48.724;9.104;2023-05-23T04:30:15;42.63;;;25.85;;
75634;SDS011;64227;48.724;9.104;2023-05-23T04:32:42;43.22;;;24.40;;
75634;SDS011;64227;48.724;9.104;2023-05-23T04:35:07;38.45;;;24.25;;
75634;SDS011;64227;48.724;9.104;2023-05-23T04:37:33;40.10;;;22.88;;
75634;SDS011;64227;48.724;9.104;2023-05-23T04:39:59;32.80;;;20.58;;
75634;SDS011;64227;48.724;9.104;2023-05-23T04:42:25;35.35;;;21.70;;
75634;SDS011;64227;48.724;9.104;2023-05-23T04:44:50;38.15;;;24.35;;
75634;SDS011;64227;48.724;9.104;2023-05-23T04:47:16;33.47;;;22.20;;
75634;SDS011;64227;48.724;9.104;2023-05-23T04:49:43;32.30;;;21.73;;
75634;SDS011;64227;48.724;9.104;2023-05-23T04:52:09;31.55;;;20.95;;
75634;SDS011;64227;48.724;9.104;2023-05-23T04:54:34;34.22;;;23.88;;
75634;SDS011;64227;48.724;9.104;2023-05-23T04:57:00;37.55;;;25.75;;
75634;SDS011;64227;48.724;9.104;2023-05-23T04:59:25;34.08;;;20.52;;
75634;SDS011;64227;48.724;9.104;2023-05-23T05:01:51;34.60;;;23.10;;
75634;SDS011;64227;48.724;9.104;2023-05-23T05:04:16;27.38;;;17.63;;
75634;SDS011;64227;48.724;9.104;2023-05-23T05:06:42;37.10;;;24.70;;
75634;SDS011;64227;48.724;9.104;2023-05-23T05:09:07;35.17;;;23.15;;
75634;SDS011;64227;48.724;9.104;2023-05-23T05:11:32;37.35;;;26.35;;
75634;SDS011;64227;48.724;9.104;2023-05-23T05:13:58;31.23;;;21.88;;
75634;SDS011;64227;48.724;9.104;2023-05-23T05:16:23;29.30;;;18.90;;
75634;SDS011;64227;48.724;9.104;2023-05-23T05:18:49;34.42;;;23.35;;
75634;SDS011;64227;48.724;9.104;2023-05-23T05:21:15;28.50;;;19.77;;
75634;SDS011;64227;48.724;9.104;2023-05-23T05:23:40;28.65;;;20.80;;
75634;SDS011;64227;48.724;9.104;2023-05-23T05:26:05;31.02;;;20.35;;
75634;SDS011;64227;48.724;9.104;2023-05-23T05:28:32;30.73;;;22.40;;
75634;SDS011;64227;48.724;9.104;2023-05-23T05:30:57;26.55;;;18.52;;
75634;SDS011;64227;48.724;9.104;2023-05-23T05:33:22;27.95;;;19.20;;
75634;SDS011;64227;48.724;9.104;2023-05-23T05:35:48;29.65;;;20.35;;
75634;SDS011;64227;48.724;9.104;2023-05-23T05:38:15;27.48;;;19.98;;
75634;SDS011;64227;48.724;9.104;2023-05-23T05:40:57;34.65;;;24.23;;
75634;SDS011;64227;48.724;9.104;2023-05-23T05:43:22;34.95;;;24.13;;
75634;SDS011;64227;48.724;9.104;2023-05-23T05:45:48;37.42;;;24.58;;
75634;SDS011;64227;48.724;9.104;2023-05-23T05:48:13;28.88;;;21.23;;
75634;SDS011;64227;48.724;9.104;2023-05-23T05:50:38;31.95;;;22.33;;
75634;SDS011;64227;48.724;9.104;2023-05-23T05:53:04;37.08;;;23.98;;
75634;SDS011;64227;48.724;9.104;2023-05-23T05:55:29;38.50;;;25.38;;
75634;SDS011;64227;48.724;9.104;2023-05-23T05:57:54;31.20;;;23.30;;
75634;SDS011;64227;48.724;9.104;2023-05-23T06:00:20;31.70;;;23.30;;
75634;SDS011;64227;48.724;9.104;2023-05-23T06:02:46;36.15;;;25.05;;
75634;SDS011;64227;48.724;9.104;2023-05-23T06:05:11;31.88;;;22.98;;
75634;SDS011;64227;48.724;9.104;2023-05-23T06:07:38;24.90;;;18.20;;
75634;SDS011;64227;48.724;9.104;2023-05-23T06:10:03;30.50;;;21.83;;
75634;SDS011;64227;48.724;9.104;2023-05-23T06:12:29;33.17;;;23.30;;
75634;SDS011;64227;48.724;9.104;2023-05-23T06:14:54;33.75;;;22.73;;
75634;SDS011;64227;48.724;9.104;2023-05-23T06:17:20;33.50;;;24.23;;
75634;SDS011;64227;48.724;9.104;2023-05-23T06:19:45;27.55;;;21.15;;
75634;SDS011;64227;48.724;9.104;2023-05-23T06:22:10;36.63;;;26.80;;
75634;SDS011;64227;48.724;9.104;2023-05-23T06:24:36;32.97;;;23.38;;
75634;SDS011;64227;48.724;9.104;2023-05-23T06:27:01;36.58;;;27.02;;
75634;SDS011;64227;48.724;9.104;2023-05-23T06:29:26;30.95;;;22.48;;
75634;SDS011;64227;48.724;9.104;2023-05-23T06:31:52;32.10;;;23.35;;
75634;SDS011;64227;48.724;9.104;2023-05-23T06:34:17;35.35;;;23.30;;
75634;SDS011;64227;48.724;9.104;2023-05-23T06:36:42;30.83;;;21.40;;
75634;SDS011;64227;48.724;9.104;2023-05-23T06:39:08;27.63;;;19.60;;
75634;SDS011;64227;48.724;9.104;2023-05-23T06:41:37;27.70;;;20.83;;
75634;SDS011;64227;48.724;9.104;2023-05-23T06:44:03;25.52;;;18.30;;
75634;SDS011;64227;48.724;9.104;2023-05-23T06:46:31;28.55;;;20.70;;
75634;SDS011;64227;48.724;9.104;2023-05-23T06:48:57;26.40;;;20.60;;
75634;SDS011;64227;48.724;9.104;2023-05-23T06:51:22;27.83;;;20.30;;
75634;SDS011;64227;48.724;9.104;2023-05-23T06:53:47;25.50;;;18.83;;
75634;SDS011;64227;48.724;9.104;2023-05-23T06:56:13;24.92;;;18.85;;
75634;SDS011;64227;48.724;9.104;2023-05-23T06:58:38;25.08;;;18.80;;
75634;SDS011;64227;48.724;9.104;2023-05-23T07:01:03;29.35;;;19.30;;
75634;SDS011;64227;48.724;9.104;2023-05-23T07:03:29;28.85;;;20.92;;
75634;SDS011;64227;48.724;9.104;2023-05-23T07:05:54;25.77;;;20.23;;
75634;SDS011;64227;48.724;9.104;2023-05-23T07:08:20;22.95;;;17.13;;
75634;SDS011;64227;48.724;9.104;2023-05-23T07:10:45;25.90;;;18.60;;
75634;SDS011;64227;48.724;9.104;2023-05-23T07:13:10;26.92;;;19.00;;
75634;SDS011;64227;48.724;9.104;2023-05-23T07:15:36;25.73;;;19.65;;
75634;SDS011;64227;48.724;9.104;2023-05-23T07:18:01;25.60;;;20.23;;
75634;SDS011;64227;48.724;9.104;2023-05-23T07:20:26;25.88;;;17.88;;
75634;SDS011;64227;48.724;9.104;2023-05-23T07:22:52;28.98;;;20.02;;
75634;SDS011;64227;48.724;9.104;2023-05-23T07:25:17;27.50;;;19.83;;
75634;SDS011;64227;48.724;9.104;2023-05-23T07:27:43;29.30;;;20.17;;
75634;SDS011;64227;48.724;9.104;2023-05-23T07:30:08;29.30;;;20.35;;
75634;SDS011;64227;48.724;9.104;2023-05-23T07:32:34;27.33;;;19.42;;
75634;SDS011;64227;48.724;9.104;2023-05-23T07:35:01;25.13;;;19.55;;
75634;SDS011;64227;48.724;9.104;2023-05-23T07:37:26;28.88;;;20.52;;
75634;SDS011;64227;48.724;9.104;2023-05-23T07:39:52;29.85;;;22.35;;
75634;SDS011;64227;48.724;9.104;2023-05-23T07:42:17;23.63;;;18.35;;
75634;SDS011;64227;48.724;9.104;2023-05-23T07:47:59;26.48;;;20.13;;
75634;SDS011;64227;48.724;9.104;2023-05-23T07:50:25;28.63;;;22.60;;
75634;SDS011;64227;48.724;9.104;2023-05-23T07:52:51;30.10;;;22.10;;
75634;SDS011;64227;48.724;9.104;2023-05-23T07:55:17;32.03;;;21.88;;
75634;SDS011;64227;48.724;9.104;2023-05-23T07:57:42;28.13;;;21.95;;
75634;SDS011;64227;48.724;9.104;2023-05-23T08:00:08;33.97;;;22.73;;
75634;SDS011;64227;48.724;9.104;2023-05-23T08:02:34;28.10;;;21.40;;
75634;SDS011;64227;48.724;9.104;2023-05-23T08:04:59;28.77;;;21.20;;
75634;SDS011;64227;48.724;9.104;2023-05-23T08:07:24;31.98;;;22.42;;
75634;SDS011;64227;48.724;9.104;2023-05-23T08:09:50;30.25;;;20.35;;
75634;SDS011;64227;48.724;9.104;2023-05-23T08:12:15;28.45;;;20.83;;
75634;SDS011;64227;48.724;9.104;2023-05-23T08:14:40;30.65;;;21.13;;
75634;SDS011;64227;48.724;9.104;2023-05-23T08:17:06;26.85;;;20.13;;
75634;SDS011;64227;48.724;9.104;2023-05-23T08:19:31;23.05;;;18.33;;
75634;SDS011;64227;48.724;9.104;2023-05-23T08:21:56;28.92;;;19.90;;
75634;SDS011;64227;48.724;9.104;2023-05-23T08:24:21;23.83;;;18.50;;
75634;SDS011;64227;48.724;9.104;2023-05-23T08:26:47;19.73;;;15.98;;
75634;SDS011;64227;48.724;9.104;2023-05-23T08:29:13;26.60;;;19.02;;
75634;SDS011;64227;48.724;9.104;2023-05-23T08:31:38;27.23;;;20.38;;
75634;SDS011;64227;48.724;9.104;2023-05-23T08:34:04;26.67;;;18.67;;
75634;SDS011;64227;48.724;9.104;2023-05-23T08:36:29;26.58;;;19.25;;
75634;SDS011;64227;48.724;9.104;2023-05-23T08:38:58;24.38;;;16.92;;
75634;SDS011;64227;48.724;9.104;2023-05-23T08:41:23;22.13;;;16.73;;
75634;SDS011;64227;48.724;9.104;2023-05-23T08:43:49;24.63;;;17.98;;
75634;SDS011;64227;48.724;9.104;2023-05-23T08:46:15;20.73;;;16.88;;
75634;SDS011;64227;48.724;9.104;2023-05-23T08:48:41;20.55;;;16.63;;
75634;SDS011;64227;48.724;9.104;2023-05-23T08:51:08;20.40;;;15.55;;
75634;SDS011;64227;48.724;9.104;2023-05-23T08:53:36;21.75;;;15.80;;
75634;SDS011;64227;48.724;9.104;2023-05-23T08:56:07;21.33;;;14.30;;
75634;SDS011;64227;48.724;9.104;2023-05-23T08:58:33;20.98;;;14.60;;
75634;SDS011;64227;48.724;9.104;2023-05-23T09:00:59;19.00;;;13.77;;
75634;SDS011;64227;48.724;9.104;2023-05-23T09:03:25;19.75;;;14.40;;
75634;SDS011;64227;48.724;9.104;2023-05-23T09:05:50;19.02;;;13.80;;
75634;SDS011;64227;48.724;9.104;2023-05-23T09:08:17;16.77;;;14.10;;
75634;SDS011;64227;48.724;9.104;2023-05-23T09:10:43;18.05;;;13.65;;
75634;SDS011;64227;48.724;9.104;2023-05-23T09:13:08;19.90;;;14.10;;
75634;SDS011;64227;48.724;9.104;2023-05-23T09:15:36;16.52;;;13.02;;
75634;SDS011;64227;48.724;9.104;2023-05-23T09:18:02;24.20;;;16.13;;
75634;SDS011;64227;48.724;9.104;2023-05-23T09:20:28;16.00;;;13.35;;
75634;SDS011;64227;48.724;9.104;2023-05-23T09:22:53;20.02;;;14.30;;
75634;SDS011;64227;48.724;9.104;2023-05-23T09:25:19;18.27;;;14.40;;
75634;SDS011;64227;48.724;9.104;2023-05-23T09:27:45;18.13;;;13.13;;
75634;SDS011;64227;48.724;9.104;2023-05-23T09:30:15;24.67;;;13.35;;
75634;SDS011;64227;48.724;9.104;2023-05-23T09:32:41;17.50;;;12.10;;
75634;SDS011;64227;48.724;9.104;2023-05-23T09:35:08;15.35;;;11.65;;
75634;SDS011;64227;48.724;9.104;2023-05-23T09:37:39;12.13;;;9.70;;
75634;SDS011;64227;48.724;9.104;2023-05-23T09:40:10;12.25;;;10.50;;
75634;SDS011;64227;48.724;9.104;2023-05-23T09:42:40;12.45;;;9.95;;
75634;SDS011;64227;48.724;9.104;2023-05-23T09:45:08;10.70;;;8.98;;
75634;SDS011;64227;48.724;9.104;2023-05-23T09:47:33;14.75;;;10.25;;
75634;SDS011;64227;48.724;9.104;2023-05-23T09:49:59;12.48;;;9.13;;
75634;SDS011;64227;48.724;9.104;2023-05-23T09:52:24;11.15;;;8.90;;
75634;SDS011;64227;48.724;9.104;2023-05-23T09:54:50;9.77;;;8.15;;
75634;SDS011;64227;48.724;9.104;2023-05-23T09:57:15;13.07;;;9.00;;
75634;SDS011;64227;48.724;9.104;2023-05-23T09:59:52;11.23;;;7.93;;
75634;SDS011;64227;48.724;9.104;2023-05-23T10:02:23;9.48;;;7.40;;
75634;SDS011;64227;48.724;9.104;2023-05-23T10:08:07;9.70;;;7.53;;
75634;SDS011;64227;48.724;9.104;2023-05-23T10:13:45;9.52;;;6.82;;
75634;SDS011;64227;48.724;9.104;2023-05-23T10:16:18;9.02;;;6.50;;
75634;SDS011;64227;48.724;9.104;2023-05-23T10:18:48;8.48;;;6.97;;
75634;SDS011;64227;48.724;9.104;2023-05-23T10:21:23;8.73;;;6.50;;
75634;SDS011;64227;48.724;9.104;2023-05-23T10:23:49;7.00;;;6.30;;
75634;SDS011;64227;48.724;9.104;2023-05-23T10:26:15;7.45;;;5.68;;
75634;SDS011;64227;48.724;9.104;2023-05-23T10:28:41;7.68;;;5.78;;
75634;SDS011;64227;48.724;9.104;2023-05-23T10:31:08;6.90;;;4.90;;
75634;SDS011;64227;48.724;9.104;2023-05-23T10:33:35;7.07;;;5.93;;
75634;SDS011;64227;48.724;9.104;2023-05-23T10:36:10;7.30;;;6.53;;
75634;SDS011;64227;48.724;9.104;2023-05-23T10:38:45;5.55;;;4.97;;
75634;SDS011;64227;48.724;9.104;2023-05-23T10:43:56;8.15;;;6.03;;
75634;SDS011;64227;48.724;9.104;2023-05-23T10:46:49;6.60;;;5.68;;
75634;SDS011;64227;48.724;9.104;2023-05-23T10:49:17;8.07;;;6.63;;
75634;SDS011;64227;48.724;9.104;2023-05-23T10:51:43;5.75;;;5.15;;
75634;SDS011;64227;48.724;9.104;2023-05-23T10:54:12;6.28;;;5.65;;
75634;SDS011;64227;48.724;9.104;2023-05-23T10:56:38;6.55;;;5.38;;
75634;SDS011;64227;48.724;9.104;2023-05-23T10:59:04;5.47;;;4.30;;
75634;SDS011;64227;48.724;9.104;2023-05-23T11:01:30;5.30;;;4.70;;
75634;SDS011;64227;48.724;9.104;2023-05-23T11:03:56;12.25;;;6.38;;
75634;SDS011;64227;48.724;9.104;2023-05-23T11:06:36;8.70;;;5.82;;
75634;SDS011;64227;48.724;9.104;2023-05-23T11:14:16;6.55;;;5.40;;
75634;SDS011;64227;48.724;9.104;2023-05-23T11:16:42;7.38;;;6.50;;
75634;SDS011;64227;48.724;9.104;2023-05-23T11:21:44;6.43;;;5.78;;
75634;SDS011;64227;48.724;9.104;2023-05-23T11:24:10;6.18;;;5.57;;
75634;SDS011;64227;48.724;9.104;2023-05-23T11:26:35;8.45;;;6.53;;
75634;SDS011;64227;48.724;9.104;2023-05-23T11:29:00;7.32;;;6.13;;
75634;SDS011;64227;48.724;9.104;2023-05-23T11:31:28;8.43;;;6.32;;
75634;SDS011;64227;48.724;9.104;2023-05-23T11:33:54;6.32;;;5.72;;
75634;SDS011;64227;48.724;9.104;2023-05-23T11:36:20;6.32;;;5.47;;
75634;SDS011;64227;48.724;9.104;2023-05-23T11:38:46;7.78;;;6.30;;
75634;SDS011;64227;48.724;9.104;2023-05-23T11:41:12;7.93;;;6.40;;
75634;SDS011;64227;48.724;9.104;2023-05-23T11:43:47;7.43;;;6.28;;
75634;SDS011;64227;48.724;9.104;2023-05-23T11:46:13;5.20;;;4.70;;
75634;SDS011;64227;48.724;9.104;2023-05-23T11:48:43;6.30;;;5.32;;
75634;SDS011;64227;48.724;9.104;2023-05-23T11:51:08;8.52;;;6.22;;
75634;SDS011;64227;48.724;9.104;2023-05-23T11:53:34;8.57;;;6.13;;
75634;SDS011;64227;48.724;9.104;2023-05-23T11:56:00;6.97;;;5.68;;
75634;SDS011;64227;48.724;9.104;2023-05-23T11:58:27;6.85;;;5.78;;
75634;SDS011;64227;48.724;9.104;2023-05-23T12:00:58;6.20;;;5.60;;
75634;SDS011;64227;48.724;9.104;2023-05-23T12:03:24;7.38;;;6.07;;
75634;SDS011;64227;48.724;9.104;2023-05-23T12:05:50;7.82;;;5.70;;
75634;SDS011;64227;48.724;9.104;2023-05-23T12:08:15;5.38;;;4.82;;
75634;SDS011;64227;48.724;9.104;2023-05-23T12:10:55;6.32;;;5.65;;
75634;SDS011;64227;48.724;9.104;2023-05-23T12:13:26;6.45;;;5.22;;
75634;SDS011;64227;48.724;9.104;2023-05-23T12:15:56;9.77;;;6.13;;
75634;SDS011;64227;48.724;9.104;2023-05-23T12:18:22;13.38;;;7.15;;
75634;SDS011;64227;48.724;9.104;2023-05-23T12:20:51;6.93;;;6.22;;
75634;SDS011;64227;48.724;9.104;2023-05-23T12:23:18;7.25;;;5.95;;
75634;SDS011;64227;48.724;9.104;2023-05-23T12:25:48;8.48;;;6.30;;
75634;SDS011;64227;48.724;9.104;2023-05-23T12:28:14;5.32;;;4.65;;
75634;SDS011;64227;48.724;9.104;2023-05-23T12:30:40;8.05;;;5.10;;
75634;SDS011;64227;48.724;9.104;2023-05-23T12:33:08;4.88;;;4.20;;
75634;SDS011;64227;48.724;9.104;2023-05-23T12:35:34;6.72;;;4.32;;
75634;SDS011;64227;48.724;9.104;2023-05-23T12:37:59;9.75;;;4.40;;
75634;SDS011;64227;48.724;9.104;2023-05-23T12:40:25;4.80;;;4.30;;
75634;SDS011;64227;48.724;9.104;2023-05-23T12:42:54;4.32;;;3.90;;
75634;SDS011;64227;48.724;9.104;2023-05-23T12:45:20;6.47;;;4.95;;
75634;SDS011;64227;48.724;9.104;2023-05-23T12:47:46;5.25;;;4.75;;
75634;SDS011;64227;48.724;9.104;2023-05-23T12:50:12;5.63;;;4.03;;
75634;SDS011;64227;48.724;9.104;2023-05-23T12:52:37;4.75;;;4.22;;
75634;SDS011;64227;48.724;9.104;2023-05-23T12:55:04;5.60;;;3.85;;
75634;SDS011;64227;48.724;9.104;2023-05-23T12:57:30;4.70;;;4.25;;
75634;SDS011;64227;48.724;9.104;2023-05-23T12:59:56;4.53;;;4.03;;
75634;SDS011;64227;48.724;9.104;2023-05-23T13:02:22;4.05;;;3.35;;
75634;SDS011;64227;48.724;9.104;2023-05-23T13:04:47;3.35;;;3.05;;
75634;SDS011;64227;48.724;9.104;2023-05-23T13:07:12;3.72;;;3.30;;
75634;SDS011;64227;48.724;9.104;2023-05-23T13:09:38;2.97;;;2.78;;
75634;SDS011;64227;48.724;9.104;2023-05-23T13:12:04;2.90;;;2.60;;
75634;SDS011;64227;48.724;9.104;2023-05-23T13:14:29;3.28;;;2.97;;
75634;SDS011;64227;48.724;9.104;2023-05-23T13:16:55;3.30;;;3.00;;
75634;SDS011;64227;48.724;9.104;2023-05-23T13:19:20;4.38;;;3.72;;
75634;SDS011;64227;48.724;9.104;2023-05-23T13:21:45;3.15;;;2.85;;
75634;SDS011;64227;48.724;9.104;2023-05-23T13:24:11;2.80;;;2.40;;
75634;SDS011;64227;48.724;9.104;2023-05-23T13:26:36;2.65;;;2.45;;
75634;SDS011;64227;48.724;9.104;2023-05-23T13:29:02;5.15;;;3.20;;
75634;SDS011;64227;48.724;9.104;2023-05-23T13:31:27;3.75;;;2.75;;
75634;SDS011;64227;48.724;9.104;2023-05-23T13:33:52;2.00;;;1.90;;
75634;SDS011;64227;48.724;9.104;2023-05-23T13:36:18;2.33;;;2.13;;
75634;SDS011;64227;48.724;9.104;2023-05-23T13:38:43;4.38;;;2.47;;
75634;SDS011;64227;48.724;9.104;2023-05-23T13:41:08;3.45;;;3.15;;
75634;SDS011;64227;48.724;9.104;2023-05-23T13:43:34;5.80;;;2.80;;
75634;SDS011;64227;48.724;9.104;2023-05-23T13:46:00;4.53;;;2.75;;
75634;SDS011;64227;48.724;9.104;2023-05-23T13:48:26;3.53;;;3.22;;
75634;SDS011;64227;48.724;9.104;2023-05-23T13:50:52;2.92;;;2.67;;
75634;SDS011;64227;48.724;9.104;2023-05-23T13:53:17;2.97;;;2.58;;
75634;SDS011;64227;48.724;9.104;2023-05-23T13:55:42;2.97;;;2.72;;
75634;SDS011;64227;48.724;9.104;2023-05-23T13:58:11;2.70;;;2.45;;
75634;SDS011;64227;48.724;9.104;2023-05-23T14:00:37;2.85;;;2.65;;
75634;SDS011;64227;48.724;9.104;2023-05-23T14:03:02;6.95;;;2.83;;
75634;SDS011;64227;48.724;9.104;2023-05-23T14:05:28;4.38;;;2.70;;
75634;SDS011;64227;48.724;9.104;2023-05-23T14:07:53;5.15;;;2.60;;
75634;SDS011;64227;48.724;9.104;2023-05-23T14:10:18;3.33;;;2.05;;
75634;SDS011;64227;48.724;9.104;2023-05-23T14:12:45;4.47;;;2.45;;
75634;SDS011;64227;48.724;9.104;2023-05-23T14:15:10;3.50;;;2.17;;
75634;SDS011;64227;48.724;9.104;2023-05-23T14:17:35;2.83;;;2.38;;
75634;SDS011;64227;48.724;9.104;2023-05-23T14:20:01;4.20;;;2.17;;
75634;SDS011;64227;48.724;9.104;2023-05-23T14:22:27;2.15;;;1.85;;
75634;SDS011;64227;48.724;9.104;2023-05-23T14:24:52;2.80;;;2.42;;
75634;SDS011;64227;48.724;9.104;2023-05-23T14:27:18;2.85;;;2.45;;
75634;SDS011;64227;48.724;9.104;2023-05-23T14:29:43;2.92;;;2.70;;
75634;SDS011;64227;48.724;9.104;2023-05-23T14:32:10;2.72;;;2.53;;
75634;SDS011;64227;48.724;9.104;2023-05-23T14:34:36;2.45;;;2.22;;
75634;SDS011;64227;48.724;9.104;2023-05-23T14:37:01;1.70;;;1.60;;
75634;SDS011;64227;48.724;9.104;2023-05-23T14:39:27;2.85;;;2.50;;
75634;SDS011;64227;48.724;9.104;2023-05-23T14:41:53;7.47;;;2.45;;
75634;SDS011;64227;48.724;9.104;2023-05-23T14:44:18;2.80;;;2.58;;
75634;SDS011;64227;48.724;9.104;2023-05-23T14:46:43;3.58;;;2.53;;
75634;SDS011;64227;48.724;9.104;2023-05-23T14:49:12;2.53;;;2.33;;
75634;SDS011;64227;48.724;9.104;2023-05-23T14:51:38;2.40;;;2.20;;
75634;SDS011;64227;48.724;9.104;2023-05-23T14:54:03;2.63;;;2.25;;